createdAt,value
2023-01-27T00:00:15.758Z,81.47
2023-01-27T00:06:20.847Z,76.05
2023-01-27T00:09:23.155Z,76.20
2023-01-27T00:12:45.385Z,78.72
2023-01-27T00:15:47.799Z,85.90
2023-01-27T00:18:50.167Z,79.75
2023-01-27T00:22:11.400Z,95.60
2023-01-27T00:25:13.792Z,84.47
2023-01-27T00:28:23.177Z,85.65
2023-01-27T00:31:46.008Z,97.68
2023-01-27T00:34:48.452Z,84.72
2023-01-27T00:37:50.885Z,95.57
2023-01-27T00:44:15.761Z,89.28
2023-01-27T00:47:18.080Z,91.75
2023-01-27T00:50:21.094Z,88.13
2023-01-27T00:53:23.431Z,93.27
2023-01-27T00:56:28.250Z,123.45
2023-01-27T00:59:31.887Z,115.18
2023-01-27T01:02:34.266Z,91.90
2023-01-27T01:05:37.251Z,88.75
2023-01-27T01:08:40.102Z,97.47
2023-01-27T01:11:42.377Z,89.43
2023-01-27T01:14:44.761Z,86.20
2023-01-27T01:17:48.425Z,96.13
2023-01-27T01:20:51.218Z,103.13
2023-01-27T01:23:53.542Z,102.28
2023-01-27T01:26:57.154Z,107.07
2023-01-27T01:30:01.163Z,104.05
2023-01-27T01:36:27.521Z,85.25
2023-01-27T01:39:31.260Z,110.85
2023-01-27T01:42:54.497Z,106.82
2023-01-27T01:46:01.139Z,108.43
2023-01-27T01:49:04.618Z,108.78
2023-01-27T01:52:12.269Z,122.22
2023-01-27T01:55:14.852Z,111.22
2023-01-27T01:58:17.962Z,123.93
2023-01-27T02:01:20.468Z,122.33
2023-01-27T02:04:27.471Z,104.28
2023-01-27T02:08:05.593Z,110.47
2023-01-27T02:11:09.363Z,113.18
2023-01-27T02:14:15.134Z,108.03
2023-01-27T02:17:18.082Z,120.90
2023-01-27T02:20:24.731Z,81.73
2023-01-27T02:23:48.978Z,107.25
2023-01-27T02:26:51.696Z,80.43
2023-01-27T02:29:53.977Z,104.72
2023-01-27T02:32:56.749Z,109.38
2023-01-27T02:35:59.410Z,119.75
2023-01-27T02:39:03.200Z,84.05
2023-01-27T02:42:07.121Z,108.18
2023-01-27T02:45:11.550Z,107.50
2023-01-27T02:48:15.934Z,101.22
2023-01-27T02:51:18.734Z,105.60
2023-01-27T02:54:21.236Z,110.47
2023-01-27T02:57:23.594Z,110.32
2023-01-27T03:00:45.549Z,112.68
2023-01-27T03:03:48.499Z,109.13
2023-01-27T03:06:54.511Z,106.63
2023-01-27T03:09:57.002Z,111.38
2023-01-27T03:12:59.400Z,109.43
2023-01-27T03:16:20.864Z,103.72
2023-01-27T03:19:23.832Z,105.85
2023-01-27T03:22:26.509Z,104.93
2023-01-27T03:25:30.031Z,95.90
2023-01-27T03:28:32.890Z,100.88
2023-01-27T03:31:55.797Z,94.10
2023-01-27T03:34:58.614Z,63.97
2023-01-27T03:38:31.335Z,82.88
2023-01-27T03:41:53.198Z,77.13
2023-01-27T03:45:15.822Z,77.32
2023-01-27T03:48:21.153Z,72.20
2023-01-27T03:51:25.313Z,78.53
2023-01-27T03:54:27.616Z,81.90
2023-01-27T03:57:29.943Z,87.72
2023-01-27T04:00:33.066Z,82.90
2023-01-27T04:03:54.957Z,67.45
2023-01-27T04:07:03.012Z,81.13
2023-01-27T04:10:06.498Z,86.88
2023-01-27T04:13:09.375Z,91.30
2023-01-27T04:16:11.984Z,96.63
2023-01-27T04:19:14.700Z,91.03
2023-01-27T04:22:17.668Z,93.80
2023-01-27T04:25:20.182Z,101.40
2023-01-27T04:28:41.764Z,68.63
2023-01-27T04:31:46.268Z,91.15
2023-01-27T04:34:48.749Z,62.80
2023-01-27T04:37:51.222Z,71.20
2023-01-27T04:40:53.736Z,92.50
2023-01-27T04:43:56.056Z,91.50
2023-01-27T04:46:58.672Z,86.45
2023-01-27T04:50:00.969Z,76.05
2023-01-27T04:53:03.288Z,82.30
2023-01-27T04:56:08.124Z,69.22
2023-01-27T04:59:15.764Z,71.22
2023-01-27T05:02:18.063Z,72.40
2023-01-27T05:05:20.396Z,66.90
2023-01-27T05:08:22.723Z,67.75
2023-01-27T05:11:25.113Z,69.00
2023-01-27T05:14:27.555Z,72.25
2023-01-27T05:17:33.555Z,66.03
2023-01-27T05:20:35.807Z,62.05
2023-01-27T05:23:38.220Z,67.03
2023-01-27T05:26:40.979Z,69.15
2023-01-27T05:29:43.274Z,63.53
2023-01-27T05:32:45.551Z,67.43
2023-01-27T05:35:47.824Z,62.40
2023-01-27T05:38:50.576Z,62.33
2023-01-27T05:41:52.864Z,64.50
2023-01-27T05:44:55.126Z,66.65
2023-01-27T05:47:57.551Z,70.90
2023-01-27T05:51:00.306Z,65.20
2023-01-27T05:54:02.953Z,59.42
2023-01-27T05:57:05.259Z,63.50
2023-01-27T06:00:08.341Z,64.00
2023-01-27T06:03:10.679Z,43.97
2023-01-27T06:06:14.115Z,58.92
2023-01-27T06:09:16.559Z,69.82
2023-01-27T06:12:18.894Z,63.08
2023-01-27T06:15:21.301Z,58.67
2023-01-27T06:18:24.588Z,65.75
2023-01-27T06:21:27.163Z,50.22
2023-01-27T06:24:29.853Z,67.40
2023-01-27T06:27:32.144Z,65.10
2023-01-27T06:30:35.839Z,68.93
2023-01-27T06:33:38.386Z,72.53
2023-01-27T06:36:40.792Z,73.65
2023-01-27T06:39:43.289Z,79.68
2023-01-27T06:42:45.635Z,86.00
2023-01-27T06:45:50.644Z,83.65
2023-01-27T06:48:53.018Z,84.22
2023-01-27T06:51:55.279Z,76.93
2023-01-27T06:54:57.898Z,68.60
2023-01-27T06:58:02.644Z,76.63
2023-01-27T07:01:06.998Z,73.63
2023-01-27T07:04:09.617Z,63.00
2023-01-27T07:07:12.142Z,65.03
2023-01-27T07:10:14.858Z,71.60
2023-01-27T07:13:18.864Z,66.80
2023-01-27T07:19:23.665Z,75.90
2023-01-27T07:22:26.486Z,69.93
2023-01-27T07:25:29.765Z,67.32
2023-01-27T07:28:32.225Z,60.30
2023-01-27T07:31:34.874Z,71.32
2023-01-27T07:34:37.258Z,76.82
2023-01-27T07:37:39.589Z,67.78
2023-01-27T07:40:42.146Z,74.53
2023-01-27T07:43:44.612Z,78.78
2023-01-27T07:46:46.990Z,82.30
2023-01-27T07:49:49.725Z,73.47
2023-01-27T07:52:52.332Z,70.50
2023-01-27T07:55:54.863Z,71.75
2023-01-27T07:58:57.584Z,65.38
2023-01-27T08:02:00.149Z,70.18
2023-01-27T08:05:02.548Z,76.97
2023-01-27T08:08:05.090Z,61.55
2023-01-27T08:11:09.166Z,64.60
2023-01-27T08:14:11.663Z,60.17
2023-01-27T08:17:14.048Z,66.65
2023-01-27T08:20:17.629Z,68.18
2023-01-27T08:23:20.097Z,73.55
2023-01-27T08:26:22.457Z,73.03
2023-01-27T08:29:24.969Z,76.35
2023-01-27T08:32:27.423Z,72.97
2023-01-27T08:35:30.213Z,59.50
2023-01-27T08:38:34.587Z,79.70
2023-01-27T08:41:37.298Z,116.43
2023-01-27T08:44:39.726Z,76.07
2023-01-27T08:47:42.264Z,48.35
2023-01-27T08:50:45.082Z,48.28
2023-01-27T08:53:47.855Z,47.38
2023-01-27T08:56:50.549Z,49.22
2023-01-27T08:59:53.238Z,44.92
2023-01-27T09:02:55.786Z,45.88
2023-01-27T09:05:58.626Z,43.40
2023-01-27T09:09:11.824Z,38.05
2023-01-27T09:12:14.729Z,37.00
2023-01-27T09:15:17.271Z,40.45
2023-01-27T09:18:19.927Z,36.75
2023-01-27T09:21:22.416Z,39.22
2023-01-27T09:24:24.940Z,41.50
2023-01-27T09:27:38.838Z,41.13
2023-01-27T09:30:42.949Z,39.88
2023-01-27T09:36:52.787Z,39.95
2023-01-27T09:39:58.341Z,40.78
2023-01-27T09:43:30.111Z,43.42
2023-01-27T09:46:51.023Z,41.55
2023-01-27T09:50:29.469Z,39.78
2023-01-27T09:53:44.916Z,47.25
2023-01-27T09:56:58.851Z,38.45
2023-01-27T10:00:12.975Z,41.60
2023-01-27T10:03:31.612Z,56.00
2023-01-27T10:07:06.163Z,59.90
2023-01-27T10:10:15.001Z,52.50
2023-01-27T10:13:31.283Z,53.90
2023-01-27T10:16:54.250Z,58.00
2023-01-27T10:20:21.863Z,60.15
2023-01-27T10:23:39.099Z,54.88
2023-01-27T10:27:14.617Z,45.78
2023-01-27T10:30:41.823Z,43.97
2023-01-27T10:33:46.854Z,44.25
2023-01-27T10:37:07.706Z,44.10
2023-01-27T10:40:32.068Z,41.15
2023-01-27T10:46:49.990Z,39.90
2023-01-27T10:49:57.448Z,51.03
2023-01-27T10:53:04.935Z,56.90
2023-01-27T10:56:13.920Z,51.03
2023-01-27T10:59:26.995Z,56.65
2023-01-27T11:02:43.714Z,59.40
2023-01-27T11:05:52.317Z,47.35
2023-01-27T11:09:02.954Z,68.43
2023-01-27T11:12:10.123Z,53.90
2023-01-27T11:15:28.414Z,50.17
2023-01-27T11:18:33.441Z,47.75
2023-01-27T11:21:35.848Z,50.63
2023-01-27T11:24:46.702Z,49.78
2023-01-27T11:27:48.936Z,66.95
2023-01-27T11:31:37.423Z,46.67
2023-01-27T11:35:05.108Z,48.72
2023-01-27T11:38:15.735Z,45.65
2023-01-27T11:41:19.094Z,48.78
2023-01-27T11:44:27.194Z,43.45
2023-01-27T11:47:38.188Z,43.90
2023-01-27T11:50:42.337Z,42.08
2023-01-27T11:53:46.012Z,61.85
2023-01-27T11:56:49.826Z,50.90
2023-01-27T12:00:02.276Z,35.70
2023-01-27T12:03:38.292Z,56.65
2023-01-27T12:07:07.814Z,32.53
2023-01-27T12:10:36.423Z,35.45
2023-01-27T12:13:49.101Z,80.93
2023-01-27T12:16:53.770Z,55.05
2023-01-27T12:19:59.525Z,39.70
2023-01-27T12:23:24.691Z,40.63
2023-01-27T12:26:39.992Z,107.00
2023-01-27T12:29:47.454Z,38.42
2023-01-27T12:32:50.489Z,56.40
2023-01-27T12:35:53.631Z,30.53
2023-01-27T12:39:01.529Z,36.20
2023-01-27T12:42:04.382Z,29.48
2023-01-27T12:45:25.212Z,23.42
2023-01-27T12:48:31.143Z,27.30
2023-01-27T12:51:41.460Z,23.23
2023-01-27T12:54:43.814Z,21.77
2023-01-27T12:57:46.247Z,20.40
2023-01-27T13:00:49.200Z,14.88
2023-01-27T13:03:55.439Z,10.17
2023-01-27T13:07:03.624Z,16.83
2023-01-27T13:10:19.628Z,11.85
2023-01-27T13:13:25.865Z,10.65
2023-01-27T13:16:30.338Z,10.68
2023-01-27T13:19:43.652Z,9.70
2023-01-27T13:22:48.944Z,12.70
2023-01-27T13:26:09.985Z,10.40
2023-01-27T13:29:16.674Z,15.65
2023-01-27T13:32:20.548Z,13.55
2023-01-27T13:38:55.887Z,12.15
2023-01-27T13:42:13.412Z,23.50
2023-01-27T13:45:28.486Z,15.40
2023-01-27T13:48:38.328Z,11.38
2023-01-27T13:51:40.787Z,15.85
2023-01-27T13:54:43.344Z,10.23
2023-01-27T13:57:53.072Z,6.57
2023-01-27T14:01:29.783Z,9.65
2023-01-27T14:05:10.115Z,6.68
2023-01-27T14:08:52.894Z,9.88
2023-01-27T14:12:03.474Z,13.35
2023-01-27T14:15:27.498Z,8.55
2023-01-27T14:18:38.725Z,9.07
2023-01-27T14:21:49.485Z,7.10
2023-01-27T14:28:52.993Z,9.60
2023-01-27T14:32:14.074Z,8.50
2023-01-27T14:35:50.256Z,17.60
2023-01-27T14:39:15.864Z,12.45
2023-01-27T14:42:36.664Z,12.27
2023-01-27T14:45:41.627Z,13.63
2023-01-27T14:49:10.867Z,11.02
2023-01-27T14:52:37.387Z,12.10
2023-01-27T14:56:05.421Z,6.43
2023-01-27T14:59:17.401Z,9.48
2023-01-27T15:02:46.623Z,14.65
2023-01-27T15:05:55.009Z,9.82
2023-01-27T15:09:32.481Z,15.85
2023-01-27T15:12:48.363Z,10.10
2023-01-27T15:15:59.899Z,9.15
2023-01-27T15:19:11.621Z,9.93
2023-01-27T15:22:35.641Z,28.58
2023-01-27T15:25:41.041Z,27.30
2023-01-27T15:28:44.994Z,6.90
2023-01-27T15:32:27.935Z,10.48
2023-01-27T15:35:36.645Z,5.90
2023-01-27T15:38:39.221Z,5.43
2023-01-27T15:42:03.268Z,7.68
2023-01-27T15:45:05.885Z,9.50
2023-01-27T15:48:12.648Z,10.55
2023-01-27T15:51:20.258Z,10.30
2023-01-27T15:54:29.217Z,8.18
2023-01-27T15:57:39.677Z,12.85
2023-01-27T16:00:43.395Z,9.30
2023-01-27T16:03:48.642Z,7.85
2023-01-27T16:07:02.429Z,13.70
2023-01-27T16:10:06.236Z,14.02
2023-01-27T16:13:29.077Z,10.23
2023-01-27T16:16:32.443Z,11.57
2023-01-27T16:19:42.940Z,8.32
2023-01-27T16:22:48.395Z,9.00
2023-01-27T16:25:55.819Z,17.40
2023-01-27T16:29:11.853Z,8.60
2023-01-27T16:32:19.781Z,9.48
2023-01-27T16:35:22.565Z,8.50
2023-01-27T16:38:30.227Z,8.05
2023-01-27T16:41:38.731Z,7.13
2023-01-27T16:44:45.039Z,6.60
2023-01-27T16:48:00.108Z,9.02
2023-01-27T16:51:13.290Z,8.65
2023-01-27T16:54:24.146Z,7.75
2023-01-27T16:57:35.547Z,6.38
2023-01-27T17:00:39.710Z,7.45
2023-01-27T17:03:42.923Z,6.28
2023-01-27T17:06:45.723Z,8.02
2023-01-27T17:09:53.370Z,7.43
2023-01-27T17:12:55.778Z,11.43
2023-01-27T17:15:59.897Z,7.93
2023-01-27T17:19:07.259Z,10.57
2023-01-27T17:22:22.907Z,11.27
2023-01-27T17:25:29.867Z,15.25
2023-01-27T17:28:32.599Z,7.35
2023-01-27T17:31:38.830Z,6.60
2023-01-27T17:34:42.185Z,6.75
2023-01-27T17:37:44.951Z,9.95
2023-01-27T17:40:52.991Z,7.95
2023-01-27T17:44:01.376Z,11.00
2023-01-27T17:47:04.200Z,7.88
2023-01-27T17:50:07.281Z,8.23
2023-01-27T17:53:12.139Z,9.35
2023-01-27T17:56:21.103Z,16.08
2023-01-27T17:59:26.718Z,10.57
2023-01-27T18:02:31.744Z,16.65
2023-01-27T18:05:34.690Z,8.93
2023-01-27T18:08:37.220Z,12.02
2023-01-27T18:11:39.751Z,13.05
2023-01-27T18:14:42.401Z,9.63
2023-01-27T18:17:44.833Z,5.93
2023-01-27T18:20:54.006Z,12.02
2023-01-27T18:23:58.409Z,10.38
2023-01-27T18:27:00.822Z,16.52
2023-01-27T18:30:08.399Z,10.27
2023-01-27T18:33:12.863Z,15.65
2023-01-27T18:36:25.868Z,28.15
2023-01-27T18:39:38.662Z,36.78
2023-01-27T18:42:41.411Z,7.93
2023-01-27T18:45:45.195Z,15.40
2023-01-27T18:48:48.917Z,13.00
2023-01-27T18:51:51.850Z,8.40
2023-01-27T18:55:01.227Z,30.13
2023-01-27T18:58:03.687Z,32.58
2023-01-27T19:01:11.465Z,9.18
2023-01-27T19:04:13.960Z,6.35
2023-01-27T19:07:18.462Z,20.48
2023-01-27T19:10:25.354Z,12.38
2023-01-27T19:13:27.774Z,13.15
2023-01-27T19:16:33.824Z,15.77
2023-01-27T19:19:36.187Z,11.43
2023-01-27T19:22:38.828Z,18.70
2023-01-27T19:25:41.761Z,11.03
2023-01-27T19:28:44.794Z,19.55
2023-01-27T19:31:47.141Z,17.83
2023-01-27T19:34:49.701Z,7.30
2023-01-27T19:37:52.803Z,13.20
2023-01-27T19:40:56.137Z,15.57
2023-01-27T19:43:58.660Z,8.02
2023-01-27T19:47:01.057Z,5.20
2023-01-27T19:50:05.162Z,7.00
2023-01-27T19:53:08.004Z,13.18
2023-01-27T19:56:18.985Z,4.67
2023-01-27T19:59:21.566Z,9.63
2023-01-27T20:02:23.981Z,9.23
2023-01-27T20:05:28.145Z,8.80
2023-01-27T20:08:30.763Z,7.07
2023-01-27T20:11:41.810Z,6.47
2023-01-27T20:14:44.340Z,10.00
2023-01-27T20:17:46.888Z,11.98
2023-01-27T20:20:49.226Z,9.65
2023-01-27T20:23:52.269Z,29.00
2023-01-27T20:26:56.529Z,15.88
2023-01-27T20:29:58.834Z,12.13
2023-01-27T20:33:03.046Z,5.50
2023-01-27T20:36:09.753Z,16.80
2023-01-27T20:39:12.152Z,19.67
2023-01-27T20:42:14.725Z,28.77
2023-01-27T20:45:17.814Z,25.63
2023-01-27T20:48:20.790Z,32.00
2023-01-27T20:51:23.227Z,6.05
2023-01-27T20:54:25.591Z,10.18
2023-01-27T20:57:31.199Z,29.08
2023-01-27T21:00:33.824Z,7.78
2023-01-27T21:03:37.002Z,41.05
2023-01-27T21:06:39.547Z,7.95
2023-01-27T21:09:41.969Z,11.23
2023-01-27T21:12:44.610Z,9.85
2023-01-27T21:15:48.190Z,17.60
2023-01-27T21:18:50.765Z,9.57
2023-01-27T21:21:53.181Z,8.38
2023-01-27T21:24:55.459Z,8.20
2023-01-27T21:27:57.754Z,7.72
2023-01-27T21:31:09.130Z,11.77
2023-01-27T21:34:11.759Z,6.50
2023-01-27T21:37:14.120Z,7.60
2023-01-27T21:40:16.608Z,6.97
2023-01-27T21:43:37.969Z,5.72
2023-01-27T21:46:40.662Z,6.80
2023-01-27T21:50:03.109Z,3.95
2023-01-27T21:53:10.076Z,4.03
2023-01-27T21:56:12.465Z,4.07
2023-01-27T21:59:14.848Z,4.80
2023-01-27T22:02:17.644Z,5.32
2023-01-27T22:05:20.114Z,5.67
2023-01-27T22:08:22.519Z,5.63
2023-01-27T22:11:24.975Z,6.15
2023-01-27T22:14:29.811Z,6.35
2023-01-27T22:17:32.283Z,4.68
2023-01-27T22:20:34.812Z,5.07
2023-01-27T22:23:37.313Z,4.63
2023-01-27T22:26:39.977Z,8.23
2023-01-27T22:29:42.360Z,6.55
2023-01-27T22:32:49.875Z,9.30
2023-01-27T22:35:59.846Z,6.47
2023-01-27T22:39:02.287Z,10.23
2023-01-27T22:42:05.071Z,8.80
2023-01-27T22:45:10.939Z,9.20
2023-01-27T22:48:13.448Z,18.90
2023-01-27T22:51:16.231Z,50.42
2023-01-27T22:54:18.698Z,8.17
2023-01-27T22:57:21.887Z,10.93
2023-01-27T23:00:24.232Z,5.43
2023-01-27T23:03:26.877Z,6.15
2023-01-27T23:06:29.787Z,3.85
2023-01-27T23:09:32.804Z,4.80
2023-01-27T23:12:35.322Z,4.32
2023-01-27T23:15:37.643Z,6.55
2023-01-27T23:18:40.006Z,4.95
2023-01-27T23:21:42.747Z,10.07
2023-01-27T23:24:45.212Z,6.18
2023-01-27T23:27:47.785Z,11.57
2023-01-27T23:30:51.073Z,119.68
2023-01-27T23:33:53.574Z,98.80
2023-01-27T23:36:56.297Z,49.75
2023-01-27T23:39:58.990Z,12.88
2023-01-27T23:43:07.545Z,7.10
2023-01-27T23:46:09.873Z,5.63
2023-01-27T23:49:12.859Z,5.78
2023-01-27T23:52:15.750Z,6.77
2023-01-27T23:55:18.223Z,4.10
2023-01-27T23:58:20.716Z,7.53
